International Virtual Aviation Organisation

Eastern Europe and Northern Asia MCD

 
UNOO 101100Z 11006MPS CAVOK 09/M06 Q1039 R07/190055 NOSIG RMK QFE770
QNH:(hPa/inHg/mmHg)1039 / 30.68 / 779
QFE:(hPa/inHg/mmHg)1028 / 30.35 / 771
Temperature9
Dew Point-6
Visibility> 10000
WeatherCAVOK
Cloud Cover
Transition Height800 m./3000 ft.
Transition LevelFL40
SQUAWK